sensor_id;sensor_type;location;lat;lon;timestamp;P1;durP1;ratioP1;P2;durP2;ratioP2
6566;SDS011;3317;43.994;22.878;2023-05-07T10:25:55;5.97;;;4.07;;
6566;SDS011;3317;43.994;22.878;2023-05-07T10:29:13;3.90;;;3.47;;
6566;SDS011;3317;43.994;22.878;2023-05-07T10:31:49;4.70;;;3.17;;
6566;SDS011;3317;43.994;22.878;2023-05-07T10:34:23;3.77;;;3.40;;
6566;SDS011;3317;43.994;22.878;2023-05-07T10:36:54;4.03;;;2.90;;
6566;SDS011;3317;43.994;22.878;2023-05-07T10:39:22;5.30;;;3.20;;
6566;SDS011;3317;43.994;22.878;2023-05-07T10:41:52;5.20;;;3.80;;
6566;SDS011;3317;43.994;22.878;2023-05-07T10:44:27;4.80;;;3.63;;
6566;SDS011;3317;43.994;22.878;2023-05-07T10:47:07;4.17;;;2.90;;
6566;SDS011;3317;43.994;22.878;2023-05-07T10:49:35;5.33;;;3.30;;
6566;SDS011;3317;43.994;22.878;2023-05-07T10:52:13;5.70;;;3.37;;
6566;SDS011;3317;43.994;22.878;2023-05-07T10:54:41;5.20;;;3.27;;
6566;SDS011;3317;43.994;22.878;2023-05-07T11:03:09;3.47;;;3.10;;
6566;SDS011;3317;43.994;22.878;2023-05-07T11:05:37;3.77;;;3.10;;
6566;SDS011;3317;43.994;22.878;2023-05-07T11:08:04;6.33;;;3.53;;
6566;SDS011;3317;43.994;22.878;2023-05-07T11:10:47;8.60;;;3.23;;
6566;SDS011;3317;43.994;22.878;2023-05-07T11:13:17;5.70;;;4.00;;
6566;SDS011;3317;43.994;22.878;2023-05-07T11:15:45;4.63;;;3.53;;
6566;SDS011;3317;43.994;22.878;2023-05-07T11:18:14;4.70;;;3.53;;
6566;SDS011;3317;43.994;22.878;2023-05-07T11:26:25;8.50;;;3.03;;
6566;SDS011;3317;43.994;22.878;2023-05-07T11:28:55;5.07;;;3.60;;
6566;SDS011;3317;43.994;22.878;2023-05-07T11:31:23;3.97;;;2.97;;
6566;SDS011;3317;43.994;22.878;2023-05-07T11:33:51;5.87;;;3.47;;
6566;SDS011;3317;43.994;22.878;2023-05-07T11:36:20;4.57;;;3.23;;
6566;SDS011;3317;43.994;22.878;2023-05-07T11:38:48;4.03;;;3.07;;
6566;SDS011;3317;43.994;22.878;2023-05-07T11:41:16;3.40;;;3.10;;
6566;SDS011;3317;43.994;22.878;2023-05-07T11:43:56;6.70;;;3.50;;
6566;SDS011;3317;43.994;22.878;2023-05-07T11:46:24;4.40;;;3.30;;
6566;SDS011;3317;43.994;22.878;2023-05-07T11:48:52;7.93;;;3.30;;
6566;SDS011;3317;43.994;22.878;2023-05-07T11:51:20;5.20;;;3.37;;
6566;SDS011;3317;43.994;22.878;2023-05-07T11:53:47;4.63;;;3.10;;
6566;SDS011;3317;43.994;22.878;2023-05-07T11:56:15;6.50;;;3.30;;
6566;SDS011;3317;43.994;22.878;2023-05-07T11:58:43;10.53;;;3.50;;
6566;SDS011;3317;43.994;22.878;2023-05-07T12:01:12;4.80;;;3.60;;
6566;SDS011;3317;43.994;22.878;2023-05-07T12:03:40;3.73;;;3.33;;
6566;SDS011;3317;43.994;22.878;2023-05-07T12:06:09;3.90;;;3.50;;
6566;SDS011;3317;43.994;22.878;2023-05-07T12:08:38;6.10;;;3.40;;
6566;SDS011;3317;43.994;22.878;2023-05-07T12:11:08;4.37;;;3.10;;
6566;SDS011;3317;43.994;22.878;2023-05-07T12:13:36;4.20;;;3.07;;
6566;SDS011;3317;43.994;22.878;2023-05-07T12:16:05;3.83;;;2.80;;
6566;SDS011;3317;43.994;22.878;2023-05-07T12:18:35;7.43;;;3.53;;
6566;SDS011;3317;43.994;22.878;2023-05-07T12:21:03;7.70;;;3.50;;
6566;SDS011;3317;43.994;22.878;2023-05-07T12:23:31;3.30;;;3.00;;
6566;SDS011;3317;43.994;22.878;2023-05-07T12:25:59;4.77;;;3.10;;
6566;SDS011;3317;43.994;22.878;2023-05-07T12:28:26;4.53;;;3.63;;
6566;SDS011;3317;43.994;22.878;2023-05-07T12:30:53;5.80;;;3.17;;
6566;SDS011;3317;43.994;22.878;2023-05-07T12:33:23;4.90;;;3.13;;
6566;SDS011;3317;43.994;22.878;2023-05-07T12:35:53;3.70;;;2.80;;
6566;SDS011;3317;43.994;22.878;2023-05-07T12:38:21;6.37;;;2.87;;
6566;SDS011;3317;43.994;22.878;2023-05-07T12:40:49;3.43;;;3.13;;
6566;SDS011;3317;43.994;22.878;2023-05-07T12:43:17;4.30;;;3.20;;
6566;SDS011;3317;43.994;22.878;2023-05-07T12:45:45;6.83;;;2.97;;
6566;SDS011;3317;43.994;22.878;2023-05-07T12:48:13;5.70;;;3.50;;
6566;SDS011;3317;43.994;22.878;2023-05-07T12:50:40;3.17;;;2.83;;
6566;SDS011;3317;43.994;22.878;2023-05-07T12:53:10;4.60;;;3.20;;
6566;SDS011;3317;43.994;22.878;2023-05-07T12:55:41;4.60;;;3.10;;
6566;SDS011;3317;43.994;22.878;2023-05-07T12:58:16;5.13;;;3.17;;
6566;SDS011;3317;43.994;22.878;2023-05-07T13:00:44;7.90;;;3.23;;
6566;SDS011;3317;43.994;22.878;2023-05-07T13:03:11;3.40;;;3.10;;
6566;SDS011;3317;43.994;22.878;2023-05-07T13:05:38;5.20;;;3.20;;
6566;SDS011;3317;43.994;22.878;2023-05-07T13:08:05;8.70;;;3.20;;
6566;SDS011;3317;43.994;22.878;2023-05-07T13:10:36;4.50;;;3.47;;
6566;SDS011;3317;43.994;22.878;2023-05-07T13:13:03;5.23;;;3.00;;
6566;SDS011;3317;43.994;22.878;2023-05-07T13:15:29;7.53;;;3.57;;
6566;SDS011;3317;43.994;22.878;2023-05-07T13:17:56;5.23;;;3.47;;
6566;SDS011;3317;43.994;22.878;2023-05-07T13:20:23;4.47;;;3.37;;
6566;SDS011;3317;43.994;22.878;2023-05-07T13:22:50;3.17;;;2.83;;
6566;SDS011;3317;43.994;22.878;2023-05-07T13:25:17;7.20;;;3.43;;
6566;SDS011;3317;43.994;22.878;2023-05-07T13:27:45;4.97;;;3.40;;
6566;SDS011;3317;43.994;22.878;2023-05-07T13:30:13;6.90;;;3.60;;
6566;SDS011;3317;43.994;22.878;2023-05-07T13:32:40;6.40;;;3.70;;
6566;SDS011;3317;43.994;22.878;2023-05-07T13:35:07;4.63;;;3.00;;
6566;SDS011;3317;43.994;22.878;2023-05-07T13:37:34;3.90;;;3.60;;
6566;SDS011;3317;43.994;22.878;2023-05-07T13:40:01;4.57;;;2.90;;
6566;SDS011;3317;43.994;22.878;2023-05-07T13:42:29;4.07;;;3.30;;
6566;SDS011;3317;43.994;22.878;2023-05-07T13:44:58;3.40;;;3.10;;
6566;SDS011;3317;43.994;22.878;2023-05-07T13:47:28;3.87;;;3.47;;
6566;SDS011;3317;43.994;22.878;2023-05-07T13:49:55;6.57;;;3.50;;
6566;SDS011;3317;43.994;22.878;2023-05-07T13:52:22;6.47;;;3.07;;
6566;SDS011;3317;43.994;22.878;2023-05-07T13:54:48;4.20;;;2.90;;
6566;SDS011;3317;43.994;22.878;2023-05-07T13:57:17;7.20;;;2.80;;
6566;SDS011;3317;43.994;22.878;2023-05-07T13:59:44;5.37;;;3.33;;
6566;SDS011;3317;43.994;22.878;2023-05-07T14:02:12;5.40;;;3.20;;
6566;SDS011;3317;43.994;22.878;2023-05-07T14:04:40;4.73;;;3.50;;
6566;SDS011;3317;43.994;22.878;2023-05-07T14:07:07;4.30;;;3.20;;
6566;SDS011;3317;43.994;22.878;2023-05-07T14:09:33;6.23;;;3.30;;
6566;SDS011;3317;43.994;22.878;2023-05-07T14:12:00;6.33;;;3.47;;
6566;SDS011;3317;43.994;22.878;2023-05-07T14:14:27;3.93;;;3.07;;
6566;SDS011;3317;43.994;22.878;2023-05-07T14:16:55;7.17;;;3.40;;
6566;SDS011;3317;43.994;22.878;2023-05-07T14:19:24;5.63;;;3.77;;
6566;SDS011;3317;43.994;22.878;2023-05-07T14:21:51;5.47;;;3.80;;
6566;SDS011;3317;43.994;22.878;2023-05-07T14:24:18;8.87;;;4.27;;
6566;SDS011;3317;43.994;22.878;2023-05-07T14:26:45;10.80;;;3.97;;
6566;SDS011;3317;43.994;22.878;2023-05-07T14:29:12;5.40;;;3.33;;
6566;SDS011;3317;43.994;22.878;2023-05-07T14:31:40;3.73;;;3.03;;
6566;SDS011;3317;43.994;22.878;2023-05-07T14:34:07;4.87;;;3.87;;
6566;SDS011;3317;43.994;22.878;2023-05-07T14:36:36;4.00;;;3.30;;
6566;SDS011;3317;43.994;22.878;2023-05-07T14:39:03;3.67;;;3.20;;
6566;SDS011;3317;43.994;22.878;2023-05-07T14:41:31;3.80;;;3.23;;
6566;SDS011;3317;43.994;22.878;2023-05-07T14:43:58;3.80;;;3.40;;
6566;SDS011;3317;43.994;22.878;2023-05-07T14:46:25;5.80;;;3.60;;
6566;SDS011;3317;43.994;22.878;2023-05-07T14:48:52;4.33;;;3.33;;
6566;SDS011;3317;43.994;22.878;2023-05-07T14:51:20;5.27;;;3.00;;
6566;SDS011;3317;43.994;22.878;2023-05-07T14:53:49;4.43;;;3.30;;
6566;SDS011;3317;43.994;22.878;2023-05-07T14:56:17;3.30;;;2.87;;
6566;SDS011;3317;43.994;22.878;2023-05-07T14:58:43;4.43;;;3.17;;
6566;SDS011;3317;43.994;22.878;2023-05-07T15:01:13;11.90;;;3.30;;
6566;SDS011;3317;43.994;22.878;2023-05-07T15:03:40;5.50;;;3.53;;
6566;SDS011;3317;43.994;22.878;2023-05-07T15:06:07;3.80;;;3.00;;
6566;SDS011;3317;43.994;22.878;2023-05-07T15:08:34;7.30;;;3.23;;
6566;SDS011;3317;43.994;22.878;2023-05-07T15:11:03;6.20;;;3.40;;
6566;SDS011;3317;43.994;22.878;2023-05-07T15:13:30;8.47;;;3.20;;
6566;SDS011;3317;43.994;22.878;2023-05-07T15:15:56;7.07;;;3.27;;
6566;SDS011;3317;43.994;22.878;2023-05-07T15:18:23;3.87;;;3.47;;
6566;SDS011;3317;43.994;22.878;2023-05-07T15:20:51;5.10;;;3.70;;
6566;SDS011;3317;43.994;22.878;2023-05-07T15:23:18;4.73;;;3.10;;
6566;SDS011;3317;43.994;22.878;2023-05-07T15:25:44;6.30;;;3.60;;
6566;SDS011;3317;43.994;22.878;2023-05-07T15:28:13;4.10;;;3.20;;
6566;SDS011;3317;43.994;22.878;2023-05-07T15:30:40;3.70;;;3.07;;
6566;SDS011;3317;43.994;22.878;2023-05-07T15:33:07;4.50;;;2.90;;
6566;SDS011;3317;43.994;22.878;2023-05-07T15:35:34;6.77;;;4.20;;
6566;SDS011;3317;43.994;22.878;2023-05-07T15:38:02;6.70;;;3.03;;
6566;SDS011;3317;43.994;22.878;2023-05-07T15:40:29;4.73;;;3.37;;
6566;SDS011;3317;43.994;22.878;2023-05-07T15:42:56;4.60;;;2.90;;
6566;SDS011;3317;43.994;22.878;2023-05-07T15:45:24;4.37;;;3.10;;
6566;SDS011;3317;43.994;22.878;2023-05-07T15:47:51;5.20;;;3.20;;
6566;SDS011;3317;43.994;22.878;2023-05-07T15:50:18;5.40;;;3.00;;
6566;SDS011;3317;43.994;22.878;2023-05-07T15:52:45;3.87;;;2.70;;
6566;SDS011;3317;43.994;22.878;2023-05-07T15:55:12;5.60;;;3.53;;
6566;SDS011;3317;43.994;22.878;2023-05-07T15:57:40;10.40;;;5.80;;
6566;SDS011;3317;43.994;22.878;2023-05-07T16:00:07;15.57;;;3.33;;
6566;SDS011;3317;43.994;22.878;2023-05-07T16:02:38;7.73;;;3.60;;
6566;SDS011;3317;43.994;22.878;2023-05-07T16:05:05;6.30;;;3.27;;
6566;SDS011;3317;43.994;22.878;2023-05-07T16:07:34;3.20;;;2.90;;
6566;SDS011;3317;43.994;22.878;2023-05-07T16:10:01;6.47;;;3.20;;
6566;SDS011;3317;43.994;22.878;2023-05-07T16:12:28;4.20;;;3.33;;
6566;SDS011;3317;43.994;22.878;2023-05-07T16:14:55;4.70;;;2.73;;
6566;SDS011;3317;43.994;22.878;2023-05-07T16:17:22;5.30;;;3.30;;
6566;SDS011;3317;43.994;22.878;2023-05-07T16:19:51;5.00;;;3.47;;
6566;SDS011;3317;43.994;22.878;2023-05-07T16:22:18;7.63;;;3.23;;
6566;SDS011;3317;43.994;22.878;2023-05-07T16:24:46;6.27;;;3.43;;
6566;SDS011;3317;43.994;22.878;2023-05-07T16:27:13;3.57;;;3.10;;
6566;SDS011;3317;43.994;22.878;2023-05-07T16:29:39;8.57;;;3.43;;
6566;SDS011;3317;43.994;22.878;2023-05-07T16:32:06;5.10;;;3.10;;
6566;SDS011;3317;43.994;22.878;2023-05-07T16:34:33;4.40;;;3.00;;
6566;SDS011;3317;43.994;22.878;2023-05-07T16:37:03;7.80;;;3.07;;
6566;SDS011;3317;43.994;22.878;2023-05-07T16:39:31;4.43;;;3.83;;
6566;SDS011;3317;43.994;22.878;2023-05-07T16:41:58;3.73;;;3.27;;
6566;SDS011;3317;43.994;22.878;2023-05-07T16:44:25;3.60;;;2.83;;
6566;SDS011;3317;43.994;22.878;2023-05-07T16:46:52;8.03;;;3.30;;
6566;SDS011;3317;43.994;22.878;2023-05-07T16:49:19;3.93;;;3.53;;
6566;SDS011;3317;43.994;22.878;2023-05-07T16:51:46;6.57;;;3.90;;
6566;SDS011;3317;43.994;22.878;2023-05-07T16:54:14;5.93;;;4.07;;
6566;SDS011;3317;43.994;22.878;2023-05-07T16:56:41;8.90;;;4.70;;
6566;SDS011;3317;43.994;22.878;2023-05-07T16:59:08;9.97;;;3.53;;
6566;SDS011;3317;43.994;22.878;2023-05-07T17:01:35;7.70;;;4.50;;
6566;SDS011;3317;43.994;22.878;2023-05-07T17:04:02;8.90;;;3.60;;
6566;SDS011;3317;43.994;22.878;2023-05-07T17:06:29;6.33;;;3.83;;
6566;SDS011;3317;43.994;22.878;2023-05-07T17:08:56;4.30;;;3.63;;
6566;SDS011;3317;43.994;22.878;2023-05-07T17:11:25;5.40;;;3.47;;
6566;SDS011;3317;43.994;22.878;2023-05-07T17:13:55;5.03;;;3.67;;
6566;SDS011;3317;43.994;22.878;2023-05-07T17:16:22;4.53;;;3.63;;
6566;SDS011;3317;43.994;22.878;2023-05-07T17:18:48;4.13;;;3.47;;
6566;SDS011;3317;43.994;22.878;2023-05-07T17:21:15;7.13;;;3.03;;
6566;SDS011;3317;43.994;22.878;2023-05-07T17:23:42;5.30;;;3.27;;
6566;SDS011;3317;43.994;22.878;2023-05-07T17:26:12;3.50;;;2.87;;
6566;SDS011;3317;43.994;22.878;2023-05-07T17:28:41;7.53;;;4.00;;
6566;SDS011;3317;43.994;22.878;2023-05-07T17:31:07;5.10;;;3.70;;
6566;SDS011;3317;43.994;22.878;2023-05-07T17:33:34;11.33;;;3.63;;
6566;SDS011;3317;43.994;22.878;2023-05-07T17:36:02;5.90;;;4.03;;
6566;SDS011;3317;43.994;22.878;2023-05-07T17:38:29;6.37;;;3.60;;
6566;SDS011;3317;43.994;22.878;2023-05-07T17:40:56;4.83;;;3.30;;
6566;SDS011;3317;43.994;22.878;2023-05-07T17:43:23;9.00;;;3.40;;
6566;SDS011;3317;43.994;22.878;2023-05-07T17:45:52;5.37;;;3.50;;
6566;SDS011;3317;43.994;22.878;2023-05-07T17:48:19;5.70;;;3.80;;
6566;SDS011;3317;43.994;22.878;2023-05-07T17:50:46;4.70;;;3.60;;
6566;SDS011;3317;43.994;22.878;2023-05-07T17:53:13;4.80;;;3.90;;
6566;SDS011;3317;43.994;22.878;2023-05-07T17:55:40;4.17;;;3.77;;
6566;SDS011;3317;43.994;22.878;2023-05-07T17:58:08;6.40;;;3.87;;
6566;SDS011;3317;43.994;22.878;2023-05-07T18:00:35;4.57;;;3.67;;
6566;SDS011;3317;43.994;22.878;2023-05-07T18:03:03;5.07;;;4.00;;
6566;SDS011;3317;43.994;22.878;2023-05-07T18:05:31;5.43;;;4.23;;
6566;SDS011;3317;43.994;22.878;2023-05-07T18:08:01;4.90;;;4.40;;
6566;SDS011;3317;43.994;22.878;2023-05-07T18:10:28;8.13;;;4.73;;
6566;SDS011;3317;43.994;22.878;2023-05-07T18:12:55;8.23;;;4.70;;
6566;SDS011;3317;43.994;22.878;2023-05-07T18:15:22;6.73;;;4.67;;
6566;SDS011;3317;43.994;22.878;2023-05-07T18:17:49;7.43;;;6.33;;
6566;SDS011;3317;43.994;22.878;2023-05-07T18:20:17;7.83;;;4.83;;
6566;SDS011;3317;43.994;22.878;2023-05-07T18:22:44;8.60;;;4.30;;
6566;SDS011;3317;43.994;22.878;2023-05-07T18:25:11;6.80;;;4.20;;
6566;SDS011;3317;43.994;22.878;2023-05-07T18:27:40;7.37;;;5.77;;
6566;SDS011;3317;43.994;22.878;2023-05-07T18:30:08;10.17;;;7.90;;
6566;SDS011;3317;43.994;22.878;2023-05-07T18:32:35;11.03;;;9.23;;
6566;SDS011;3317;43.994;22.878;2023-05-07T18:35:02;8.00;;;6.57;;
6566;SDS011;3317;43.994;22.878;2023-05-07T18:37:32;6.90;;;5.70;;
6566;SDS011;3317;43.994;22.878;2023-05-07T18:39:59;6.00;;;4.70;;
6566;SDS011;3317;43.994;22.878;2023-05-07T18:43:02;6.00;;;5.00;;
6566;SDS011;3317;43.994;22.878;2023-05-07T18:45:31;5.27;;;4.00;;
6566;SDS011;3317;43.994;22.878;2023-05-07T18:47:59;8.00;;;4.63;;
6566;SDS011;3317;43.994;22.878;2023-05-07T18:50:26;6.67;;;4.60;;
6566;SDS011;3317;43.994;22.878;2023-05-07T18:52:53;6.57;;;4.50;;
6566;SDS011;3317;43.994;22.878;2023-05-07T18:55:20;5.53;;;4.27;;
6566;SDS011;3317;43.994;22.878;2023-05-07T18:57:47;5.30;;;4.30;;
6566;SDS011;3317;43.994;22.878;2023-05-07T19:00:15;6.50;;;4.40;;
6566;SDS011;3317;43.994;22.878;2023-05-07T19:02:42;5.90;;;5.23;;
6566;SDS011;3317;43.994;22.878;2023-05-07T19:05:09;5.53;;;4.60;;
6566;SDS011;3317;43.994;22.878;2023-05-07T19:07:37;8.83;;;5.57;;
6566;SDS011;3317;43.994;22.878;2023-05-07T19:10:04;6.30;;;5.20;;
6566;SDS011;3317;43.994;22.878;2023-05-07T19:12:32;6.47;;;5.03;;
6566;SDS011;3317;43.994;22.878;2023-05-07T19:14:59;6.37;;;5.27;;
6566;SDS011;3317;43.994;22.878;2023-05-07T19:17:28;7.47;;;4.97;;
6566;SDS011;3317;43.994;22.878;2023-05-07T19:19:55;9.90;;;6.00;;
6566;SDS011;3317;43.994;22.878;2023-05-07T19:22:22;17.33;;;6.93;;
6566;SDS011;3317;43.994;22.878;2023-05-07T19:24:49;7.30;;;5.57;;
6566;SDS011;3317;43.994;22.878;2023-05-07T19:27:16;9.30;;;6.27;;
6566;SDS011;3317;43.994;22.878;2023-05-07T19:29:43;11.97;;;6.97;;
6566;SDS011;3317;43.994;22.878;2023-05-07T19:32:10;12.00;;;7.50;;
6566;SDS011;3317;43.994;22.878;2023-05-07T19:34:38;10.43;;;6.70;;
6566;SDS011;3317;43.994;22.878;2023-05-07T19:37:06;9.97;;;6.73;;
6566;SDS011;3317;43.994;22.878;2023-05-07T19:39:33;10.53;;;7.30;;
6566;SDS011;3317;43.994;22.878;2023-05-07T19:42:00;11.43;;;6.83;;
6566;SDS011;3317;43.994;22.878;2023-05-07T19:44:27;18.67;;;8.20;;
6566;SDS011;3317;43.994;22.878;2023-05-07T19:46:56;12.23;;;8.27;;
6566;SDS011;3317;43.994;22.878;2023-05-07T19:49:26;11.77;;;8.03;;
6566;SDS011;3317;43.994;22.878;2023-05-07T19:51:54;12.60;;;7.70;;
6566;SDS011;3317;43.994;22.878;2023-05-07T19:54:22;12.50;;;7.90;;
6566;SDS011;3317;43.994;22.878;2023-05-07T19:56:49;15.07;;;7.30;;
6566;SDS011;3317;43.994;22.878;2023-05-07T19:59:15;13.93;;;7.03;;
6566;SDS011;3317;43.994;22.878;2023-05-07T20:01:42;12.93;;;7.83;;
6566;SDS011;3317;43.994;22.878;2023-05-07T20:04:09;9.73;;;6.97;;
6566;SDS011;3317;43.994;22.878;2023-05-07T20:06:36;11.07;;;7.00;;
6566;SDS011;3317;43.994;22.878;2023-05-07T20:09:04;8.90;;;7.13;;
6566;SDS011;3317;43.994;22.878;2023-05-07T20:11:35;10.07;;;6.60;;
6566;SDS011;3317;43.994;22.878;2023-05-07T20:14:02;7.53;;;5.80;;
6566;SDS011;3317;43.994;22.878;2023-05-07T20:16:29;12.80;;;6.70;;
6566;SDS011;3317;43.994;22.878;2023-05-07T20:18:56;6.87;;;5.50;;
6566;SDS011;3317;43.994;22.878;2023-05-07T20:21:23;6.60;;;4.80;;
6566;SDS011;3317;43.994;22.878;2023-05-07T20:23:50;8.93;;;6.60;;
6566;SDS011;3317;43.994;22.878;2023-05-07T20:26:19;8.80;;;5.70;;
6566;SDS011;3317;43.994;22.878;2023-05-07T20:28:46;9.60;;;6.60;;
6566;SDS011;3317;43.994;22.878;2023-05-07T20:31:13;14.03;;;6.60;;
6566;SDS011;3317;43.994;22.878;2023-05-07T20:33:41;12.40;;;6.30;;
6566;SDS011;3317;43.994;22.878;2023-05-07T20:36:08;9.13;;;5.23;;
6566;SDS011;3317;43.994;22.878;2023-05-07T20:38:35;9.20;;;6.20;;
6566;SDS011;3317;43.994;22.878;2023-05-07T20:41:04;11.90;;;6.30;;
6566;SDS011;3317;43.994;22.878;2023-05-07T20:43:34;8.83;;;6.30;;
6566;SDS011;3317;43.994;22.878;2023-05-07T20:46:02;12.80;;;7.80;;
6566;SDS011;3317;43.994;22.878;2023-05-07T20:48:31;14.37;;;8.37;;
6566;SDS011;3317;43.994;22.878;2023-05-07T20:50:59;13.70;;;7.60;;
6566;SDS011;3317;43.994;22.878;2023-05-07T20:53:27;9.73;;;6.80;;
6566;SDS011;3317;43.994;22.878;2023-05-07T20:55:54;9.67;;;6.30;;
6566;SDS011;3317;43.994;22.878;2023-05-07T20:58:22;14.23;;;6.10;;
6566;SDS011;3317;43.994;22.878;2023-05-07T21:00:50;12.20;;;6.40;;
6566;SDS011;3317;43.994;22.878;2023-05-07T21:03:18;11.50;;;5.67;;
6566;SDS011;3317;43.994;22.878;2023-05-07T21:05:49;19.53;;;6.70;;
6566;SDS011;3317;43.994;22.878;2023-05-07T21:08:16;11.90;;;7.40;;
6566;SDS011;3317;43.994;22.878;2023-05-07T21:10:44;15.00;;;7.27;;
6566;SDS011;3317;43.994;22.878;2023-05-07T21:13:11;12.50;;;7.10;;
6566;SDS011;3317;43.994;22.878;2023-05-07T21:15:38;12.83;;;7.30;;
6566;SDS011;3317;43.994;22.878;2023-05-07T21:18:08;17.73;;;7.83;;
6566;SDS011;3317;43.994;22.878;2023-05-07T21:20:35;10.30;;;7.10;;
6566;SDS011;3317;43.994;22.878;2023-05-07T21:23:02;13.87;;;7.83;;
6566;SDS011;3317;43.994;22.878;2023-05-07T21:25:30;11.80;;;7.23;;
6566;SDS011;3317;43.994;22.878;2023-05-07T21:27:57;16.33;;;7.67;;
6566;SDS011;3317;43.994;22.878;2023-05-07T21:30:23;13.57;;;7.57;;
6566;SDS011;3317;43.994;22.878;2023-05-07T21:32:50;16.00;;;8.53;;
6566;SDS011;3317;43.994;22.878;2023-05-07T21:35:21;16.30;;;8.53;;
6566;SDS011;3317;43.994;22.878;2023-05-07T21:37:47;16.00;;;8.00;;
6566;SDS011;3317;43.994;22.878;2023-05-07T21:40:14;13.17;;;7.50;;
6566;SDS011;3317;43.994;22.878;2023-05-07T21:42:42;17.33;;;9.00;;
6566;SDS011;3317;43.994;22.878;2023-05-07T21:45:09;14.30;;;8.17;;
6566;SDS011;3317;43.994;22.878;2023-05-07T21:47:37;11.67;;;7.90;;
6566;SDS011;3317;43.994;22.878;2023-05-07T21:50:04;13.90;;;7.30;;
6566;SDS011;3317;43.994;22.878;2023-05-07T21:52:33;14.90;;;7.07;;
6566;SDS011;3317;43.994;22.878;2023-05-07T21:55:00;11.47;;;6.70;;
6566;SDS011;3317;43.994;22.878;2023-05-07T21:57:28;14.27;;;7.27;;
6566;SDS011;3317;43.994;22.878;2023-05-07T21:59:55;10.27;;;7.13;;
6566;SDS011;3317;43.994;22.878;2023-05-07T22:02:21;13.60;;;7.10;;
6566;SDS011;3317;43.994;22.878;2023-05-07T22:04:48;10.53;;;6.77;;
6566;SDS011;3317;43.994;22.878;2023-05-07T22:07:15;13.73;;;6.50;;
6566;SDS011;3317;43.994;22.878;2023-05-07T22:09:44;9.67;;;5.90;;
6566;SDS011;3317;43.994;22.878;2023-05-07T22:12:11;11.13;;;6.00;;
6566;SDS011;3317;43.994;22.878;2023-05-07T22:14:38;6.57;;;4.80;;
6566;SDS011;3317;43.994;22.878;2023-05-07T22:17:04;7.20;;;5.00;;
6566;SDS011;3317;43.994;22.878;2023-05-07T22:19:31;5.97;;;4.97;;
6566;SDS011;3317;43.994;22.878;2023-05-07T22:21:58;7.20;;;5.00;;
6566;SDS011;3317;43.994;22.878;2023-05-07T22:24:25;7.83;;;5.17;;
6566;SDS011;3317;43.994;22.878;2023-05-07T22:26:55;9.03;;;5.20;;
6566;SDS011;3317;43.994;22.878;2023-05-07T22:29:22;10.00;;;5.10;;
6566;SDS011;3317;43.994;22.878;2023-05-07T22:31:49;15.83;;;6.50;;
6566;SDS011;3317;43.994;22.878;2023-05-07T22:34:16;6.60;;;4.97;;
6566;SDS011;3317;43.994;22.878;2023-05-07T22:36:43;6.57;;;4.70;;
6566;SDS011;3317;43.994;22.878;2023-05-07T22:39:10;10.17;;;5.13;;
6566;SDS011;3317;43.994;22.878;2023-05-07T22:41:37;9.83;;;4.70;;
6566;SDS011;3317;43.994;22.878;2023-05-07T22:44:06;7.27;;;4.50;;
6566;SDS011;3317;43.994;22.878;2023-05-07T22:46:32;8.50;;;4.77;;
6566;SDS011;3317;43.994;22.878;2023-05-07T22:48:59;7.43;;;4.30;;
6566;SDS011;3317;43.994;22.878;2023-05-07T22:51:27;6.93;;;4.40;;
6566;SDS011;3317;43.994;22.878;2023-05-07T22:53:54;6.70;;;4.77;;
6566;SDS011;3317;43.994;22.878;2023-05-07T22:56:21;4.70;;;4.20;;
6566;SDS011;3317;43.994;22.878;2023-05-07T22:58:48;9.27;;;4.90;;
6566;SDS011;3317;43.994;22.878;2023-05-07T23:01:17;5.70;;;4.63;;
6566;SDS011;3317;43.994;22.878;2023-05-07T23:03:44;8.60;;;5.10;;
6566;SDS011;3317;43.994;22.878;2023-05-07T23:06:11;8.30;;;4.97;;
6566;SDS011;3317;43.994;22.878;2023-05-07T23:08:38;6.40;;;4.77;;
6566;SDS011;3317;43.994;22.878;2023-05-07T23:11:07;6.93;;;4.70;;
6566;SDS011;3317;43.994;22.878;2023-05-07T23:13:34;8.03;;;4.87;;
6566;SDS011;3317;43.994;22.878;2023-05-07T23:16:01;7.60;;;4.60;;
6566;SDS011;3317;43.994;22.878;2023-05-07T23:18:30;7.10;;;4.60;;
6566;SDS011;3317;43.994;22.878;2023-05-07T23:20:57;11.40;;;4.80;;
6566;SDS011;3317;43.994;22.878;2023-05-07T23:23:24;10.50;;;5.63;;
6566;SDS011;3317;43.994;22.878;2023-05-07T23:25:54;11.20;;;5.00;;
6566;SDS011;3317;43.994;22.878;2023-05-07T23:28:21;7.47;;;5.10;;
6566;SDS011;3317;43.994;22.878;2023-05-07T23:30:48;8.03;;;4.63;;
6566;SDS011;3317;43.994;22.878;2023-05-07T23:33:15;6.27;;;5.10;;
6566;SDS011;3317;43.994;22.878;2023-05-07T23:35:43;6.70;;;4.40;;
6566;SDS011;3317;43.994;22.878;2023-05-07T23:38:10;6.33;;;4.60;;
6566;SDS011;3317;43.994;22.878;2023-05-07T23:40:37;6.27;;;4.57;;
6566;SDS011;3317;43.994;22.878;2023-05-07T23:43:05;5.30;;;4.80;;
6566;SDS011;3317;43.994;22.878;2023-05-07T23:45:32;8.20;;;5.10;;
6566;SDS011;3317;43.994;22.878;2023-05-07T23:47:59;7.30;;;5.00;;
6566;SDS011;3317;43.994;22.878;2023-05-07T23:50:26;9.87;;;4.50;;
6566;SDS011;3317;43.994;22.878;2023-05-07T23:52:54;5.90;;;4.80;;
6566;SDS011;3317;43.994;22.878;2023-05-07T23:55:21;6.10;;;4.40;;
6566;SDS011;3317;43.994;22.878;2023-05-07T23:57:48;5.60;;;4.47;;
